Česky Dansk Deutsch English Español Suomi Français Magyar Italiano Nederlands norsk Polski Português svenska Türkçe

 

Het Weer

Upington, Up-Apt (Zuid Afrika)

14:00, 21 augustus 2016 (GMT)

NWNNE
WE
SWSSE
Home            
Upington, Up-Apt Sishen Tsabong Kimberley, Kim-Apt De Aar Springbok De Aar Vryburg Calvinia Keetmanshoop Fraserburg Vredendal Beaufort West Alexander Bay Tshane Bloemfontein, Bloemfontein Airport Middelburg Mafikeng Intl. Ad Graaff Reinet Welkom Jwaneng Lichtenburg Klerksdorp

Om een weerknop op uw website of weblog te plaatsen, copieer onderstaande code en plak die in uw pagina. In het eerste vakje staat HTML-code, in het tweede vakje UBB-code.


Add to Google

Details

Wind speed:4 bf, 13 kn, 6.7 m/s, 15.0 miles/h, 24.1 km/h
Wind direction:WSW, 250°
Visibility:Greater than 10000 m, 10 km, 32800 ft, 6.2 miles
Clouds:CAVOC
Temperature:26°C, 79°F
Gefühlte Temperatur:25°C, 77°F
Dew-point:-7°C, 19°F
Atmospheric pressure:1017 hPa, 762.8 mmHg, 30.03 inHg, 1.004 atm
Relative humidity:10.8 %
METAR:FAUP 211400Z 25013KT CAVOK 26/M07 Q1017 NOSIG

Snelkoppelingen

Actuele weersinformatie van de hele wereld. Voeg locaties toe met het plus (+) symbool. Deze snelkoppelingen kunnen worden toegevoegd aan Google.

Lid van de Technetium groep

website free tracking
StatCounter NetStat W3C Validator

17-12-2017 04:49:22
astro.technetium.be money.technetium.be phote.technetium.be tafeltennistafel.technetium.be www.ligfiets.net